createdAt,value
2018-02-20T00:00:24.549Z,24.20
2018-02-20T00:01:24.548Z,38.50
2018-02-20T00:02:24.579Z,26.00
2018-02-20T00:03:24.561Z,25.90
2018-02-20T00:04:24.526Z,25.20
2018-02-20T00:05:24.538Z,24.50
2018-02-20T00:06:24.511Z,23.80
2018-02-20T00:07:24.550Z,24.80
2018-02-20T00:08:24.512Z,24.80
2018-02-20T00:09:24.484Z,25.30
2018-02-20T00:10:24.460Z,26.10
2018-02-20T00:11:24.441Z,26.10
2018-02-20T00:12:24.427Z,24.90
2018-02-20T00:13:24.417Z,25.00
2018-02-20T00:14:24.409Z,25.00
2018-02-20T00:15:24.397Z,26.10
2018-02-20T00:16:24.403Z,26.00
2018-02-20T00:17:24.446Z,26.40
2018-02-20T00:18:24.421Z,25.10
2018-02-20T00:19:24.455Z,24.20
2018-02-20T00:20:24.374Z,24.90
2018-02-20T00:21:24.463Z,24.80
2018-02-20T00:22:24.424Z,28.30
2018-02-20T00:23:24.317Z,26.40
2018-02-20T00:24:24.364Z,26.50
2018-02-20T00:25:24.302Z,25.70
2018-02-20T00:26:24.285Z,25.30
2018-02-20T00:27:24.273Z,26.20
2018-02-20T00:28:24.280Z,27.20
2018-02-20T00:29:25.092Z,24.80
2018-02-20T00:30:24.298Z,26.30
2018-02-20T00:31:24.245Z,25.70
2018-02-20T00:32:24.226Z,25.90
2018-02-20T00:33:24.247Z,26.00
2018-02-20T00:34:24.210Z,26.60
2018-02-20T00:35:24.197Z,26.10
2018-02-20T00:36:24.218Z,25.40
2018-02-20T00:37:24.208Z,26.30
2018-02-20T00:38:24.190Z,25.40
2018-02-20T00:39:24.156Z,26.40
2018-02-20T00:40:24.178Z,27.70
2018-02-20T00:41:24.131Z,25.80
2018-02-20T00:42:24.121Z,25.80
2018-02-20T00:43:24.113Z,25.40
2018-02-20T00:44:24.101Z,25.50
2018-02-20T00:45:24.126Z,26.00
2018-02-20T00:46:24.080Z,26.70
2018-02-20T00:47:24.069Z,26.20
2018-02-20T00:48:24.060Z,26.60
2018-02-20T00:49:24.051Z,25.20
2018-02-20T00:50:24.039Z,26.90
2018-02-20T00:51:24.029Z,26.30
2018-02-20T00:52:24.018Z,26.50
2018-02-20T00:53:24.031Z,27.70
2018-02-20T00:54:24.000Z,26.80
2018-02-20T00:55:24.067Z,25.80
2018-02-20T00:56:25.136Z,27.10
2018-02-20T00:57:24.060Z,26.70
2018-02-20T00:58:23.992Z,26.50
2018-02-20T00:59:23.971Z,26.10
2018-02-20T01:00:23.935Z,26.80
2018-02-20T01:01:23.961Z,27.10
2018-02-20T01:02:23.981Z,27.70
2018-02-20T01:03:23.927Z,28.40
2018-02-20T01:04:23.898Z,27.80
2018-02-20T01:05:23.934Z,26.70
2018-02-20T01:06:24.606Z,27.60
2018-02-20T01:07:23.865Z,28.80
2018-02-20T01:08:23.869Z,26.80
2018-02-20T01:09:23.844Z,26.90
2018-02-20T01:10:23.837Z,27.10
2018-02-20T01:11:23.822Z,26.70
2018-02-20T01:12:23.812Z,26.10
2018-02-20T01:13:23.802Z,27.60
2018-02-20T01:14:23.796Z,27.80
2018-02-20T01:15:23.782Z,27.00
2018-02-20T01:16:23.773Z,26.40
2018-02-20T01:17:23.756Z,25.80
2018-02-20T01:18:23.753Z,27.50
2018-02-20T01:19:23.803Z,27.50
2018-02-20T01:20:26.106Z,26.80
2018-02-20T01:21:23.715Z,27.10
2018-02-20T01:22:23.712Z,27.50
2018-02-20T01:23:23.698Z,27.30
2018-02-20T01:24:23.691Z,26.50
2018-02-20T01:25:23.679Z,28.10
2018-02-20T01:26:23.668Z,27.40
2018-02-20T01:27:23.656Z,28.10
2018-02-20T01:28:23.728Z,28.10
2018-02-20T01:29:23.669Z,28.00
2018-02-20T01:30:23.638Z,28.40
2018-02-20T01:31:23.618Z,28.80
2018-02-20T01:32:23.611Z,28.80
2018-02-20T01:33:23.595Z,28.50
2018-02-20T01:34:23.591Z,28.20
2018-02-20T01:35:23.573Z,28.70
2018-02-20T01:36:23.565Z,29.80
2018-02-20T01:37:23.553Z,30.00
2018-02-20T01:38:23.568Z,27.80
2018-02-20T01:39:23.532Z,28.70
2018-02-20T01:40:23.524Z,27.80
2018-02-20T01:41:23.514Z,29.70
2018-02-20T01:42:23.504Z,30.30
2018-02-20T01:43:23.502Z,30.50
2018-02-20T01:44:23.479Z,30.90
2018-02-20T01:45:23.469Z,30.90
2018-02-20T01:46:23.467Z,30.40
2018-02-20T01:47:23.449Z,30.40
2018-02-20T01:48:23.441Z,29.70
2018-02-20T01:49:24.103Z,29.80
2018-02-20T01:50:23.482Z,30.10
2018-02-20T01:51:23.432Z,30.90
2018-02-20T01:52:23.399Z,29.60
2018-02-20T01:53:23.389Z,29.60
2018-02-20T01:54:23.378Z,28.70
2018-02-20T01:55:23.366Z,28.60
2018-02-20T01:56:23.356Z,29.00
2018-02-20T01:57:23.346Z,27.70
2018-02-20T01:58:23.335Z,28.10
2018-02-20T01:59:23.324Z,26.60
2018-02-20T02:00:23.314Z,28.00
2018-02-20T02:01:23.303Z,27.70
2018-02-20T02:02:23.294Z,27.00
2018-02-20T02:03:23.288Z,27.10
2018-02-20T02:04:23.278Z,27.30
2018-02-20T02:05:23.269Z,28.30
2018-02-20T02:06:23.257Z,26.60
2018-02-20T02:07:23.257Z,27.60
2018-02-20T02:08:23.229Z,27.10
2018-02-20T02:09:23.219Z,27.50
2018-02-20T02:10:23.217Z,26.10
2018-02-20T02:11:23.201Z,25.80
2018-02-20T02:12:23.189Z,26.40
2018-02-20T02:13:23.177Z,26.60
2018-02-20T02:14:23.169Z,26.50
2018-02-20T02:15:23.157Z,26.10
2018-02-20T02:16:23.145Z,25.30
2018-02-20T02:17:23.136Z,26.40
2018-02-20T02:18:23.126Z,27.10
2018-02-20T02:19:23.114Z,27.40
2018-02-20T02:20:23.113Z,26.90
2018-02-20T02:21:23.093Z,26.40
2018-02-20T02:22:23.083Z,26.50
2018-02-20T02:23:23.247Z,26.90
2018-02-20T02:24:23.184Z,27.40
2018-02-20T02:25:23.597Z,26.20
2018-02-20T02:26:23.044Z,26.60
2018-02-20T02:27:23.200Z,27.40
2018-02-20T02:28:23.095Z,28.00
2018-02-20T02:29:23.008Z,29.60
2018-02-20T02:30:22.998Z,27.90
2018-02-20T02:31:22.987Z,28.70
2018-02-20T02:32:22.980Z,29.20
2018-02-20T02:33:22.966Z,28.50
2018-02-20T02:34:22.957Z,29.10
2018-02-20T02:35:22.943Z,29.20
2018-02-20T02:36:22.936Z,30.00
2018-02-20T02:37:22.927Z,29.40
2018-02-20T02:38:22.913Z,30.30
2018-02-20T02:39:22.902Z,29.80
2018-02-20T02:40:22.892Z,31.20
2018-02-20T02:41:22.880Z,31.00
2018-02-20T02:42:22.869Z,30.00
2018-02-20T02:43:22.859Z,30.30
2018-02-20T02:44:22.847Z,31.80
2018-02-20T02:45:22.839Z,30.70
2018-02-20T02:46:22.829Z,30.70
2018-02-20T02:47:22.815Z,32.10
2018-02-20T02:48:22.805Z,32.40
2018-02-20T02:49:22.794Z,31.60
2018-02-20T02:50:22.785Z,31.20
2018-02-20T02:51:22.774Z,31.90
2018-02-20T02:52:22.761Z,31.40
2018-02-20T02:53:22.754Z,31.60
2018-02-20T02:54:22.761Z,32.00
2018-02-20T02:55:22.733Z,31.80
2018-02-20T02:56:22.721Z,31.50
2018-02-20T02:57:22.716Z,30.90
2018-02-20T02:58:22.699Z,33.00
2018-02-20T02:59:22.690Z,31.00
2018-02-20T03:00:22.678Z,32.20
2018-02-20T03:01:22.668Z,30.30
2018-02-20T03:02:22.656Z,32.40
2018-02-20T03:03:22.648Z,30.80
2018-02-20T03:04:22.632Z,32.00
2018-02-20T03:05:22.624Z,30.80
2018-02-20T03:06:22.614Z,32.60
2018-02-20T03:07:22.603Z,31.70
2018-02-20T03:08:22.590Z,31.20
2018-02-20T03:09:22.580Z,31.80
2018-02-20T03:10:22.568Z,31.10
2018-02-20T03:11:22.558Z,31.30
2018-02-20T03:12:22.552Z,31.20
2018-02-20T03:13:22.539Z,31.10
2018-02-20T03:14:22.529Z,31.70
2018-02-20T03:15:22.516Z,31.40
2018-02-20T03:16:22.504Z,31.00
2018-02-20T03:17:22.494Z,30.00
2018-02-20T03:18:22.482Z,29.20
2018-02-20T03:19:22.470Z,29.20
2018-02-20T03:20:22.461Z,28.90
2018-02-20T03:21:22.449Z,28.40
2018-02-20T03:22:22.438Z,27.80
2018-02-20T03:23:22.432Z,27.70
2018-02-20T03:24:22.416Z,27.20
2018-02-20T03:25:22.407Z,27.10
2018-02-20T03:26:22.415Z,27.20
2018-02-20T03:27:22.384Z,27.40
2018-02-20T03:28:22.377Z,27.30
2018-02-20T03:29:22.362Z,25.60
2018-02-20T03:30:22.356Z,27.00
2018-02-20T03:31:22.341Z,26.10
2018-02-20T03:32:22.329Z,26.30
2018-02-20T03:33:22.320Z,26.90
2018-02-20T03:34:22.307Z,26.00
2018-02-20T03:35:22.297Z,27.40
2018-02-20T03:36:22.284Z,28.10
2018-02-20T03:37:22.274Z,26.60
2018-02-20T03:38:22.264Z,26.40
2018-02-20T03:39:22.253Z,27.60
2018-02-20T03:40:22.240Z,27.60
2018-02-20T03:41:22.228Z,27.70
2018-02-20T03:42:22.217Z,29.60
2018-02-20T03:43:22.221Z,29.00
2018-02-20T03:44:22.206Z,29.10
2018-02-20T03:45:22.185Z,29.40
2018-02-20T03:46:22.173Z,29.10
2018-02-20T03:47:22.161Z,29.10
2018-02-20T03:48:22.151Z,29.50
2018-02-20T03:49:22.141Z,29.60
2018-02-20T03:50:22.129Z,28.50
2018-02-20T03:51:22.117Z,28.10
2018-02-20T03:52:24.251Z,29.20
2018-02-20T03:53:22.179Z,28.50
2018-02-20T03:54:22.085Z,29.20
2018-02-20T03:55:22.171Z,29.10
2018-02-20T03:56:22.062Z,29.10
2018-02-20T03:57:22.050Z,29.90
2018-02-20T03:58:22.038Z,29.50
2018-02-20T03:59:22.028Z,29.70
2018-02-20T04:00:22.015Z,30.40
2018-02-20T04:01:22.004Z,32.00
2018-02-20T04:02:21.994Z,30.40
2018-02-20T04:03:21.984Z,31.80
2018-02-20T04:04:21.971Z,30.20
2018-02-20T04:05:21.961Z,31.50
2018-02-20T04:06:21.958Z,32.00
2018-02-20T04:07:21.945Z,31.70
2018-02-20T04:08:22.010Z,31.40
2018-02-20T04:09:22.608Z,31.40
2018-02-20T04:10:21.978Z,31.60
2018-02-20T04:11:21.894Z,31.50
2018-02-20T04:12:21.881Z,30.90
2018-02-20T04:13:21.873Z,33.20
2018-02-20T04:14:21.865Z,31.50
2018-02-20T04:15:21.849Z,30.10
2018-02-20T04:16:21.838Z,30.70
2018-02-20T04:17:21.832Z,30.30
2018-02-20T04:18:36.661Z,31.90
2018-02-20T04:19:21.806Z,32.20
2018-02-20T04:20:21.793Z,30.40
2018-02-20T04:21:21.785Z,32.20
2018-02-20T04:22:21.773Z,32.30
2018-02-20T04:23:21.759Z,32.00
2018-02-20T04:24:21.747Z,33.10
2018-02-20T04:25:21.736Z,32.00
2018-02-20T04:26:21.727Z,32.40
2018-02-20T04:27:21.720Z,31.30
2018-02-20T04:28:21.707Z,32.80
2018-02-20T04:29:21.695Z,32.30
2018-02-20T04:30:21.681Z,33.80
2018-02-20T04:31:21.679Z,31.70
2018-02-20T04:32:21.658Z,31.80
2018-02-20T04:33:21.649Z,34.60
2018-02-20T04:34:21.636Z,34.00
2018-02-20T04:35:21.628Z,32.80
2018-02-20T04:36:21.614Z,33.00
2018-02-20T04:37:21.602Z,33.80
2018-02-20T04:38:21.594Z,33.30
2018-02-20T04:39:21.580Z,33.90
2018-02-20T04:40:21.573Z,33.40
2018-02-20T04:41:21.558Z,32.90
2018-02-20T04:42:21.548Z,33.10
2018-02-20T04:43:21.534Z,34.40
2018-02-20T04:44:21.525Z,34.70
2018-02-20T04:45:21.514Z,32.70
2018-02-20T04:46:21.503Z,34.50
2018-02-20T04:47:21.491Z,33.10
2018-02-20T04:48:21.479Z,32.70
2018-02-20T04:49:21.468Z,34.00
2018-02-20T04:50:21.457Z,33.70
2018-02-20T04:51:21.446Z,34.40
2018-02-20T04:52:21.434Z,34.50
2018-02-20T04:53:21.426Z,33.20
2018-02-20T04:54:21.464Z,33.80
2018-02-20T04:55:21.400Z,34.30
2018-02-20T04:56:21.392Z,32.80
2018-02-20T04:57:21.378Z,33.60
2018-02-20T04:58:21.368Z,33.20
2018-02-20T04:59:21.358Z,34.20
2018-02-20T05:00:21.345Z,32.90
2018-02-20T05:01:21.336Z,32.60
2018-02-20T05:02:21.322Z,35.30
2018-02-20T05:03:21.355Z,34.10
2018-02-20T05:04:21.299Z,34.20
2018-02-20T05:05:21.289Z,33.10
2018-02-20T05:06:21.280Z,34.00
2018-02-20T05:07:21.266Z,33.70
2018-02-20T05:08:21.256Z,32.80
2018-02-20T05:09:21.244Z,33.00
2018-02-20T05:10:21.235Z,32.30
2018-02-20T05:11:21.220Z,32.60
2018-02-20T05:12:21.211Z,33.80
2018-02-20T05:13:21.199Z,33.80
2018-02-20T05:14:21.187Z,34.60
2018-02-20T05:15:21.175Z,34.70
2018-02-20T05:16:21.164Z,33.20
2018-02-20T05:17:21.155Z,33.80
2018-02-20T05:18:21.143Z,32.20
2018-02-20T05:19:21.132Z,32.60
2018-02-20T05:20:21.123Z,33.30
2018-02-20T05:21:21.109Z,33.20
2018-02-20T05:22:21.098Z,33.50
2018-02-20T05:23:21.086Z,33.90
2018-02-20T05:24:21.087Z,34.20
2018-02-20T05:25:21.122Z,33.00
2018-02-20T05:26:21.053Z,33.80
2018-02-20T05:27:21.045Z,33.10
2018-02-20T05:28:21.036Z,34.00
2018-02-20T05:29:21.019Z,31.60
2018-02-20T05:30:22.144Z,32.50
2018-02-20T05:31:21.078Z,33.80
2018-02-20T05:32:21.598Z,32.70
2018-02-20T05:33:21.591Z,30.70
2018-02-20T05:34:21.098Z,31.80
2018-02-20T05:35:21.579Z,31.00
2018-02-20T05:36:20.960Z,30.40
2018-02-20T05:37:21.588Z,28.70
2018-02-20T05:38:21.021Z,29.50
2018-02-20T05:39:20.907Z,29.60
2018-02-20T05:40:21.601Z,30.20
2018-02-20T05:41:20.902Z,29.90
2018-02-20T05:42:20.918Z,30.80
2018-02-20T05:43:21.580Z,31.70
2018-02-20T05:44:20.908Z,32.00
2018-02-20T05:45:20.838Z,34.10
2018-02-20T05:46:20.826Z,34.50
2018-02-20T05:47:20.816Z,33.80
2018-02-20T05:48:20.920Z,33.00
2018-02-20T05:49:20.792Z,33.50
2018-02-20T05:50:20.784Z,34.90
2018-02-20T05:51:20.788Z,34.50
2018-02-20T05:52:20.757Z,34.00
2018-02-20T05:53:20.749Z,33.60
2018-02-20T05:54:20.736Z,34.00
2018-02-20T05:55:20.730Z,34.80
2018-02-20T05:56:20.713Z,34.50
2018-02-20T05:57:20.703Z,34.00
2018-02-20T05:58:20.695Z,33.70
2018-02-20T05:59:20.684Z,33.90
2018-02-20T06:00:20.668Z,35.20
2018-02-20T06:01:20.661Z,34.90
2018-02-20T06:02:20.646Z,34.60
2018-02-20T06:03:20.634Z,34.90
2018-02-20T06:04:20.624Z,35.40
2018-02-20T06:05:20.610Z,34.60
2018-02-20T06:06:20.602Z,34.10
2018-02-20T06:07:20.587Z,35.00
2018-02-20T06:08:20.575Z,32.50
2018-02-20T06:09:21.160Z,34.80
2018-02-20T06:10:20.552Z,33.80
2018-02-20T06:11:20.543Z,34.90
2018-02-20T06:12:20.530Z,35.90
2018-02-20T06:13:20.524Z,32.90
2018-02-20T06:14:20.507Z,35.00
2018-02-20T06:15:20.495Z,35.90
2018-02-20T06:16:20.494Z,34.20
2018-02-20T06:17:20.475Z,31.90
2018-02-20T06:18:20.460Z,33.80
2018-02-20T06:19:20.449Z,32.40
2018-02-20T06:20:20.438Z,35.20
2018-02-20T06:21:20.428Z,36.10
2018-02-20T06:22:20.427Z,35.50
2018-02-20T06:23:20.408Z,35.10
2018-02-20T06:24:20.391Z,35.60
2018-02-20T06:25:20.382Z,34.80
2018-02-20T06:26:20.370Z,36.50
2018-02-20T06:27:20.356Z,34.50
2018-02-20T06:28:20.345Z,34.20
2018-02-20T06:29:20.336Z,33.90
2018-02-20T06:30:20.322Z,34.90
2018-02-20T06:31:20.320Z,34.40
2018-02-20T06:32:20.299Z,35.00
2018-02-20T06:33:20.320Z,34.40
2018-02-20T06:34:20.281Z,33.10
2018-02-20T06:35:20.266Z,34.20
2018-02-20T06:36:21.112Z,33.80
2018-02-20T06:37:20.325Z,34.90
2018-02-20T06:38:20.234Z,34.00
2018-02-20T06:39:20.232Z,34.00
2018-02-20T06:40:20.212Z,33.50
2018-02-20T06:41:20.201Z,31.50
2018-02-20T06:42:20.186Z,36.00
2018-02-20T06:43:20.173Z,34.60
2018-02-20T06:44:20.164Z,33.90
2018-02-20T06:45:20.207Z,33.60
2018-02-20T06:46:20.179Z,34.40
2018-02-20T06:47:20.549Z,33.30
2018-02-20T06:48:21.135Z,31.90
2018-02-20T06:49:20.107Z,34.00
2018-02-20T06:50:20.095Z,30.40
2018-02-20T06:51:20.084Z,30.90
2018-02-20T06:52:20.071Z,29.00
2018-02-20T06:53:20.061Z,30.70
2018-02-20T06:54:20.049Z,30.20
2018-02-20T06:55:20.036Z,28.70
2018-02-20T06:56:20.029Z,29.30
2018-02-20T06:57:20.016Z,29.60
2018-02-20T06:58:20.006Z,28.00
2018-02-20T06:59:19.991Z,30.80
2018-02-20T07:00:19.980Z,27.50
2018-02-20T07:01:19.980Z,26.70
2018-02-20T07:02:19.963Z,26.40
2018-02-20T07:03:19.946Z,26.90
2018-02-20T07:04:19.934Z,27.40
2018-02-20T07:05:19.940Z,28.10
2018-02-20T07:06:19.912Z,26.20
2018-02-20T07:07:19.900Z,27.30
2018-02-20T07:08:19.893Z,27.00
2018-02-20T07:09:19.878Z,24.70
2018-02-20T07:10:19.866Z,25.50
2018-02-20T07:11:19.856Z,25.30
2018-02-20T07:12:19.846Z,26.40
2018-02-20T07:13:19.835Z,25.90
2018-02-20T07:14:19.831Z,26.80
2018-02-20T07:15:19.811Z,25.60
2018-02-20T07:16:19.798Z,25.90
2018-02-20T07:17:19.788Z,28.70
2018-02-20T07:18:19.776Z,28.00
2018-02-20T07:19:19.793Z,27.50
2018-02-20T07:20:19.754Z,30.30
2018-02-20T07:21:19.742Z,29.50
2018-02-20T07:22:19.739Z,32.60
2018-02-20T07:23:19.731Z,31.90
2018-02-20T07:24:19.708Z,33.50
2018-02-20T07:25:19.701Z,31.10
2018-02-20T07:26:19.687Z,31.20
2018-02-20T07:27:19.677Z,33.00
2018-02-20T07:28:19.670Z,33.70
2018-02-20T07:29:19.652Z,33.50
2018-02-20T07:30:19.647Z,32.70
2018-02-20T07:31:19.632Z,32.50
2018-02-20T07:32:19.620Z,31.80
2018-02-20T07:33:19.610Z,32.20
2018-02-20T07:34:20.607Z,31.10
2018-02-20T07:35:19.826Z,28.10
2018-02-20T07:36:19.768Z,28.60
2018-02-20T07:37:19.565Z,28.30
2018-02-20T07:38:19.555Z,27.90
2018-02-20T07:39:19.553Z,29.30
2018-02-20T07:40:20.035Z,27.10
2018-02-20T07:41:20.626Z,28.40
2018-02-20T07:42:19.594Z,29.00
2018-02-20T07:43:19.912Z,27.80
2018-02-20T07:44:19.499Z,27.60
2018-02-20T07:45:20.774Z,33.10
2018-02-20T07:46:19.481Z,28.90
2018-02-20T07:47:19.566Z,28.60
2018-02-20T07:48:19.444Z,28.00
2018-02-20T07:49:19.431Z,27.80
2018-02-20T07:50:19.421Z,28.20
2018-02-20T07:51:19.409Z,28.10
2018-02-20T07:52:19.398Z,29.40
2018-02-20T07:53:19.425Z,27.60
2018-02-20T07:54:19.409Z,28.90
2018-02-20T07:55:19.374Z,29.00
2018-02-20T07:56:19.384Z,29.00
2018-02-20T07:57:19.344Z,29.90
2018-02-20T07:58:19.356Z,29.80
2018-02-20T07:59:19.320Z,29.00
2018-02-20T08:00:19.310Z,29.10
2018-02-20T08:01:19.408Z,29.60
2018-02-20T08:02:19.287Z,30.00
2018-02-20T08:03:19.277Z,28.90
2018-02-20T08:04:19.270Z,28.10
2018-02-20T08:05:19.254Z,28.90
2018-02-20T08:06:19.245Z,32.10
2018-02-20T08:07:19.234Z,31.10
2018-02-20T08:08:19.226Z,28.90
2018-02-20T08:09:19.234Z,29.60
2018-02-20T08:10:19.199Z,28.60
2018-02-20T08:11:19.188Z,29.00
2018-02-20T08:12:19.179Z,29.30
2018-02-20T08:13:19.174Z,32.10
2018-02-20T08:14:19.156Z,32.40
2018-02-20T08:15:19.144Z,29.10
2018-02-20T08:16:19.144Z,29.10
2018-02-20T08:17:19.141Z,29.00
2018-02-20T08:18:19.115Z,30.50
2018-02-20T08:19:19.100Z,29.70
2018-02-20T08:20:19.092Z,30.20
2018-02-20T08:21:19.089Z,29.70
2018-02-20T08:22:19.076Z,60.20
2018-02-20T08:23:19.065Z,43.70
2018-02-20T08:24:19.046Z,37.10
2018-02-20T08:25:19.037Z,40.30
2018-02-20T08:26:19.026Z,33.60
2018-02-20T08:27:19.166Z,30.90
2018-02-20T08:28:19.005Z,31.00
2018-02-20T08:29:18.995Z,29.70
2018-02-20T08:30:18.986Z,27.90
2018-02-20T08:31:18.972Z,30.60
2018-02-20T08:32:18.965Z,29.40
2018-02-20T08:33:18.950Z,30.70
2018-02-20T08:34:18.943Z,30.10
2018-02-20T08:35:18.939Z,28.60
2018-02-20T08:36:18.922Z,31.00
2018-02-20T08:37:18.911Z,31.80
2018-02-20T08:38:18.897Z,30.00
2018-02-20T08:39:18.892Z,31.40
2018-02-20T08:40:18.882Z,30.60
2018-02-20T08:41:18.869Z,29.40
2018-02-20T08:42:18.859Z,30.80
2018-02-20T08:43:18.846Z,30.10
2018-02-20T08:44:18.843Z,49.30
2018-02-20T08:45:18.823Z,30.60
2018-02-20T08:46:18.812Z,31.20
2018-02-20T08:47:18.805Z,29.60
2018-02-20T08:48:18.791Z,31.30
2018-02-20T08:49:18.789Z,31.70
2018-02-20T08:50:18.770Z,36.30
2018-02-20T08:51:18.762Z,46.50
2018-02-20T08:52:18.995Z,33.80
2018-02-20T08:53:18.740Z,32.50
2018-02-20T08:54:18.744Z,33.10
2018-02-20T08:55:18.719Z,32.80
2018-02-20T08:56:18.707Z,32.70
2018-02-20T08:57:18.708Z,30.80
2018-02-20T08:58:18.691Z,32.10
2018-02-20T08:59:18.677Z,31.00
2018-02-20T09:00:18.667Z,29.30
2018-02-20T09:01:18.800Z,31.50
2018-02-20T09:02:18.685Z,30.60
2018-02-20T09:03:18.638Z,31.30
2018-02-20T09:04:18.626Z,32.70
2018-02-20T09:05:18.616Z,32.70
2018-02-20T09:06:18.610Z,31.60
2018-02-20T09:07:18.593Z,31.70
2018-02-20T09:08:18.583Z,36.30
2018-02-20T09:09:18.577Z,35.90
2018-02-20T09:10:18.567Z,32.80
2018-02-20T09:11:18.559Z,33.40
2018-02-20T09:12:18.543Z,32.40
2018-02-20T09:13:18.533Z,32.40
2018-02-20T09:14:18.522Z,35.40
2018-02-20T09:15:18.519Z,34.60
2018-02-20T09:16:18.504Z,35.00
2018-02-20T09:17:18.492Z,35.60
2018-02-20T09:18:18.500Z,34.80
2018-02-20T09:19:18.473Z,35.90
2018-02-20T09:20:18.463Z,33.20
2018-02-20T09:21:18.452Z,32.10
2018-02-20T09:22:18.441Z,33.10
2018-02-20T09:23:18.437Z,34.40
2018-02-20T09:24:18.424Z,33.40
2018-02-20T09:25:18.699Z,33.00
2018-02-20T09:26:18.400Z,33.70
2018-02-20T09:27:18.395Z,34.20
2018-02-20T09:28:18.387Z,35.00
2018-02-20T09:29:18.379Z,33.50
2018-02-20T09:30:18.364Z,34.50
2018-02-20T09:31:18.356Z,33.40
2018-02-20T09:32:18.359Z,34.30
2018-02-20T09:33:18.342Z,35.30
2018-02-20T09:34:18.378Z,33.00
2018-02-20T09:35:18.312Z,36.70
2018-02-20T09:36:18.304Z,36.00
2018-02-20T09:37:18.293Z,38.30
2018-02-20T09:38:18.285Z,39.80
2018-02-20T09:39:18.274Z,38.20
2018-02-20T09:40:18.324Z,39.50
2018-02-20T09:41:18.256Z,39.30
2018-02-20T09:42:18.246Z,38.10
2018-02-20T09:43:18.234Z,39.10
2018-02-20T09:44:18.225Z,39.80
2018-02-20T09:45:18.216Z,38.00
2018-02-20T09:46:24.682Z,40.40
2018-02-20T09:47:18.196Z,40.00
2018-02-20T09:48:18.186Z,38.50
2018-02-20T09:49:18.178Z,38.60
2018-02-20T09:50:18.169Z,39.20
2018-02-20T09:51:18.197Z,39.20
2018-02-20T09:52:18.151Z,41.10
2018-02-20T09:53:18.142Z,39.60
2018-02-20T09:54:18.139Z,40.10
2018-02-20T09:55:18.125Z,41.10
2018-02-20T09:56:18.114Z,42.20
2018-02-20T09:57:18.107Z,42.00
2018-02-20T09:58:18.095Z,40.10
2018-02-20T09:59:18.083Z,41.00
2018-02-20T10:00:18.074Z,42.10
2018-02-20T10:01:18.083Z,43.20
2018-02-20T10:02:18.121Z,44.70
2018-02-20T10:03:18.050Z,43.70
2018-02-20T10:04:18.036Z,42.00
2018-02-20T10:05:18.028Z,41.80
2018-02-20T10:06:18.023Z,41.00
2018-02-20T10:07:18.016Z,41.20
2018-02-20T10:08:17.998Z,42.00
2018-02-20T10:09:17.989Z,44.50
2018-02-20T10:10:17.984Z,49.70
2018-02-20T10:11:17.976Z,43.80
2018-02-20T10:12:17.976Z,44.80
2018-02-20T10:13:17.961Z,44.30
2018-02-20T10:14:17.950Z,46.00
2018-02-20T10:15:17.937Z,47.10
2018-02-20T10:16:17.965Z,47.20
2018-02-20T10:17:18.063Z,48.00
2018-02-20T10:18:17.912Z,48.30
2018-02-20T10:19:17.904Z,51.40
2018-02-20T10:20:17.894Z,52.80
2018-02-20T10:21:17.877Z,53.50
2018-02-20T10:22:17.870Z,56.30
2018-02-20T10:23:17.910Z,52.90
2018-02-20T10:24:17.877Z,54.30
2018-02-20T10:25:17.872Z,56.30
2018-02-20T10:26:17.833Z,55.70
2018-02-20T10:27:17.821Z,54.70
2018-02-20T10:28:17.815Z,54.50
2018-02-20T10:29:17.800Z,54.50
2018-02-20T10:30:17.790Z,53.20
2018-02-20T10:31:17.781Z,55.20
2018-02-20T10:32:17.792Z,56.20
2018-02-20T10:33:17.771Z,55.90
2018-02-20T10:34:17.770Z,56.00
2018-02-20T10:35:17.742Z,56.30
2018-02-20T10:36:17.746Z,56.70
2018-02-20T10:37:19.652Z,55.10
2018-02-20T10:38:17.719Z,52.70
2018-02-20T10:39:17.780Z,54.30
2018-02-20T10:40:17.972Z,56.30
2018-02-20T10:41:17.689Z,55.00
2018-02-20T10:42:17.678Z,55.90
2018-02-20T10:43:17.670Z,55.70
2018-02-20T10:44:17.661Z,54.90
2018-02-20T10:45:17.690Z,58.00
2018-02-20T10:46:17.641Z,58.10
2018-02-20T10:47:17.632Z,56.20
2018-02-20T10:48:17.622Z,54.50
2018-02-20T10:49:17.612Z,53.90
2018-02-20T10:50:17.603Z,55.00
2018-02-20T10:51:17.591Z,54.70
2018-02-20T10:52:17.584Z,56.80
2018-02-20T10:53:17.575Z,54.20
2018-02-20T10:54:17.569Z,53.60
2018-02-20T10:55:17.629Z,56.30
2018-02-20T10:56:17.546Z,57.00
2018-02-20T10:57:17.538Z,56.10
2018-02-20T10:58:17.528Z,55.30
2018-02-20T10:59:17.520Z,57.00
2018-02-20T11:00:17.510Z,57.60
2018-02-20T11:01:17.502Z,56.10
2018-02-20T11:02:17.493Z,55.90
2018-02-20T11:03:17.486Z,54.60
2018-02-20T11:04:17.475Z,56.00
2018-02-20T11:05:17.467Z,55.60
2018-02-20T11:06:17.458Z,56.60
2018-02-20T11:07:17.451Z,59.20
2018-02-20T11:08:17.443Z,55.00
2018-02-20T11:09:17.437Z,57.00
2018-02-20T11:10:17.422Z,57.20
2018-02-20T11:11:17.412Z,57.00
2018-02-20T11:12:17.407Z,58.50
2018-02-20T11:13:17.420Z,57.40
2018-02-20T11:14:17.386Z,57.20
2018-02-20T11:15:17.741Z,55.80
2018-02-20T11:16:17.368Z,57.60
2018-02-20T11:17:18.149Z,58.20
2018-02-20T11:18:17.354Z,55.10
2018-02-20T11:19:17.346Z,55.60
2018-02-20T11:20:17.334Z,55.00
2018-02-20T11:21:17.334Z,55.80
2018-02-20T11:22:17.317Z,56.70
2018-02-20T11:23:17.309Z,56.10
2018-02-20T11:24:17.298Z,58.80
2018-02-20T11:25:17.295Z,57.00
2018-02-20T11:26:17.279Z,57.70
2018-02-20T11:27:17.272Z,56.10
2018-02-20T11:28:17.260Z,58.70
2018-02-20T11:29:17.251Z,57.30
2018-02-20T11:30:17.242Z,56.60
2018-02-20T11:31:17.256Z,56.50
2018-02-20T11:32:18.186Z,54.00
2018-02-20T11:33:18.112Z,54.40
2018-02-20T11:34:17.367Z,59.60
2018-02-20T11:35:17.208Z,57.00
2018-02-20T11:36:17.344Z,57.70
2018-02-20T11:37:18.073Z,54.30
2018-02-20T11:38:17.179Z,55.70
2018-02-20T11:39:17.174Z,58.40
2018-02-20T11:40:17.156Z,60.10
2018-02-20T11:41:17.143Z,60.50
2018-02-20T11:42:17.135Z,61.60
2018-02-20T11:43:17.128Z,62.30
2018-02-20T11:44:17.121Z,62.30
2018-02-20T11:45:17.112Z,64.10
2018-02-20T11:46:17.119Z,61.20
2018-02-20T11:47:17.095Z,58.50
2018-02-20T11:48:17.085Z,53.60
2018-02-20T11:49:17.078Z,58.30
2018-02-20T11:50:17.064Z,60.90
2018-02-20T11:51:17.062Z,58.50
2018-02-20T11:52:17.046Z,57.70
2018-02-20T11:53:17.041Z,60.00
2018-02-20T11:54:17.030Z,61.30
2018-02-20T11:55:17.017Z,62.70
2018-02-20T11:56:17.030Z,57.20
2018-02-20T11:57:17.042Z,59.90
2018-02-20T11:58:16.995Z,62.40
2018-02-20T11:59:16.979Z,61.90
2018-02-20T12:00:16.981Z,59.80
2018-02-20T12:01:16.975Z,62.10
2018-02-20T12:02:16.988Z,60.20
2018-02-20T12:03:16.941Z,63.40
2018-02-20T12:04:16.936Z,65.60
2018-02-20T12:05:16.925Z,63.50
2018-02-20T12:06:16.919Z,61.40
2018-02-20T12:07:16.996Z,63.20
2018-02-20T12:08:16.920Z,60.90
2018-02-20T12:09:16.892Z,62.00
2018-02-20T12:10:17.080Z,56.50
2018-02-20T12:11:16.871Z,60.40
2018-02-20T12:12:16.873Z,64.60
2018-02-20T12:13:16.847Z,63.90
2018-02-20T12:14:16.839Z,63.60
2018-02-20T12:15:16.828Z,63.20
2018-02-20T12:16:16.821Z,63.30
2018-02-20T12:17:16.812Z,60.70
2018-02-20T12:18:16.827Z,62.80
2018-02-20T12:19:17.572Z,58.90
2018-02-20T12:20:16.798Z,56.40
2018-02-20T12:21:16.910Z,60.20
2018-02-20T12:22:16.769Z,62.40
2018-02-20T12:23:16.848Z,61.30
2018-02-20T12:24:17.589Z,63.30
2018-02-20T12:25:16.751Z,63.20
2018-02-20T12:26:16.727Z,61.80
2018-02-20T12:27:16.790Z,61.50
2018-02-20T12:28:16.753Z,65.90
2018-02-20T12:29:16.699Z,63.90
2018-02-20T12:30:16.690Z,64.90
2018-02-20T12:31:16.680Z,59.60
2018-02-20T12:32:16.672Z,59.30
2018-02-20T12:33:16.664Z,58.90
2018-02-20T12:34:16.657Z,63.00
2018-02-20T12:35:16.645Z,65.80
2018-02-20T12:36:16.639Z,63.10
2018-02-20T12:37:16.641Z,61.20
2018-02-20T12:38:16.708Z,63.30
2018-02-20T12:39:16.609Z,65.70
2018-02-20T12:40:16.649Z,64.80
2018-02-20T12:41:16.592Z,60.80
2018-02-20T12:42:16.580Z,57.70
2018-02-20T12:43:16.582Z,63.60
2018-02-20T12:44:16.575Z,61.40
2018-02-20T12:45:16.553Z,61.40
2018-02-20T12:46:16.610Z,67.40
2018-02-20T12:47:17.005Z,63.90
2018-02-20T12:48:16.526Z,63.10
2018-02-20T12:49:16.521Z,61.20
2018-02-20T12:50:16.508Z,66.50
2018-02-20T12:51:16.508Z,63.90
2018-02-20T12:52:16.491Z,65.40